sensor_id;sensor_type;location;lat;lon;timestamp;temperature;humidity
14359;DHT22;7263;49.418;11.064;2022-08-04T00:01:28;22.20;1.00
14359;DHT22;7263;49.418;11.064;2022-08-04T00:04:01;22.00;1.00
14359;DHT22;7263;49.418;11.064;2022-08-04T00:06:46;22.00;1.00
14359;DHT22;7263;49.418;11.064;2022-08-04T00:09:22;22.00;1.00
14359;DHT22;7263;49.418;11.064;2022-08-04T00:11:53;22.00;1.00
14359;DHT22;7263;49.418;11.064;2022-08-04T00:14:23;21.90;1.00
14359;DHT22;7263;49.418;11.064;2022-08-04T00:16:51;21.70;1.00
14359;DHT22;7263;49.418;11.064;2022-08-04T00:19:24;21.70;1.00
14359;DHT22;7263;49.418;11.064;2022-08-04T00:21:58;21.60;1.00
14359;DHT22;7263;49.418;11.064;2022-08-04T00:24:29;21.50;1.00
14359;DHT22;7263;49.418;11.064;2022-08-04T00:26:56;21.40;1.00
14359;DHT22;7263;49.418;11.064;2022-08-04T00:29:24;21.40;1.00
14359;DHT22;7263;49.418;11.064;2022-08-04T00:31:52;21.30;1.00
14359;DHT22;7263;49.418;11.064;2022-08-04T00:34:23;21.30;1.00
14359;DHT22;7263;49.418;11.064;2022-08-04T00:36:52;21.20;1.00
14359;DHT22;7263;49.418;11.064;2022-08-04T00:39:20;21.20;1.00
14359;DHT22;7263;49.418;11.064;2022-08-04T00:41:56;21.20;1.00
14359;DHT22;7263;49.418;11.064;2022-08-04T00:44:37;21.20;1.00
14359;DHT22;7263;49.418;11.064;2022-08-04T00:47:35;21.20;1.00
14359;DHT22;7263;49.418;11.064;2022-08-04T00:50:08;21.20;1.00
14359;DHT22;7263;49.418;11.064;2022-08-04T00:52:59;21.20;1.00
14359;DHT22;7263;49.418;11.064;2022-08-04T00:55:54;21.10;1.00
14359;DHT22;7263;49.418;11.064;2022-08-04T00:58:40;21.00;1.00
14359;DHT22;7263;49.418;11.064;2022-08-04T01:01:21;21.00;1.00
14359;DHT22;7263;49.418;11.064;2022-08-04T01:04:02;20.90;1.00
14359;DHT22;7263;49.418;11.064;2022-08-04T01:06:36;20.90;1.00
14359;DHT22;7263;49.418;11.064;2022-08-04T01:09:24;20.90;1.00
14359;DHT22;7263;49.418;11.064;2022-08-04T01:12:03;20.80;1.00
14359;DHT22;7263;49.418;11.064;2022-08-04T01:15:02;20.80;1.00
14359;DHT22;7263;49.418;11.064;2022-08-04T01:17:40;20.80;1.00
14359;DHT22;7263;49.418;11.064;2022-08-04T01:20:10;20.70;1.00
14359;DHT22;7263;49.418;11.064;2022-08-04T01:23:04;20.60;1.00
14359;DHT22;7263;49.418;11.064;2022-08-04T01:25:52;20.50;1.00
14359;DHT22;7263;49.418;11.064;2022-08-04T01:28:28;20.50;1.00
14359;DHT22;7263;49.418;11.064;2022-08-04T01:31:05;20.50;1.00
14359;DHT22;7263;49.418;11.064;2022-08-04T01:33:37;20.50;1.00
14359;DHT22;7263;49.418;11.064;2022-08-04T01:36:06;20.40;1.00
14359;DHT22;7263;49.418;11.064;2022-08-04T01:38:36;20.40;1.00
14359;DHT22;7263;49.418;11.064;2022-08-04T01:41:05;20.40;1.00
14359;DHT22;7263;49.418;11.064;2022-08-04T01:43:39;20.40;1.00
14359;DHT22;7263;49.418;11.064;2022-08-04T01:46:11;20.40;1.00
14359;DHT22;7263;49.418;11.064;2022-08-04T01:48:39;20.30;1.00
14359;DHT22;7263;49.418;11.064;2022-08-04T01:51:07;20.20;1.00
14359;DHT22;7263;49.418;11.064;2022-08-04T01:53:37;20.10;1.00
14359;DHT22;7263;49.418;11.064;2022-08-04T01:56:06;20.10;1.00
14359;DHT22;7263;49.418;11.064;2022-08-04T01:58:35;20.00;1.00
14359;DHT22;7263;49.418;11.064;2022-08-04T02:01:05;19.90;1.00
14359;DHT22;7263;49.418;11.064;2022-08-04T02:03:34;19.80;1.00
14359;DHT22;7263;49.418;11.064;2022-08-04T02:06:10;19.80;1.00
14359;DHT22;7263;49.418;11.064;2022-08-04T02:08:50;19.70;1.00
14359;DHT22;7263;49.418;11.064;2022-08-04T02:11:21;19.40;1.00
14359;DHT22;7263;49.418;11.064;2022-08-04T02:13:53;19.60;1.00
14359;DHT22;7263;49.418;11.064;2022-08-04T02:16:29;19.60;1.00
14359;DHT22;7263;49.418;11.064;2022-08-04T02:19:03;19.50;1.00
14359;DHT22;7263;49.418;11.064;2022-08-04T02:21:31;19.40;1.00
14359;DHT22;7263;49.418;11.064;2022-08-04T02:24:01;19.40;1.00
14359;DHT22;7263;49.418;11.064;2022-08-04T02:26:32;19.30;1.00
14359;DHT22;7263;49.418;11.064;2022-08-04T02:29:06;19.30;1.00
14359;DHT22;7263;49.418;11.064;2022-08-04T02:31:39;19.30;1.00
14359;DHT22;7263;49.418;11.064;2022-08-04T02:34:12;19.20;1.00
14359;DHT22;7263;49.418;11.064;2022-08-04T02:36:42;19.20;1.00
14359;DHT22;7263;49.418;11.064;2022-08-04T02:39:10;19.20;1.00
14359;DHT22;7263;49.418;11.064;2022-08-04T02:41:39;19.20;1.00
14359;DHT22;7263;49.418;11.064;2022-08-04T02:44:09;19.10;1.00
14359;DHT22;7263;49.418;11.064;2022-08-04T02:46:37;19.10;1.00
14359;DHT22;7263;49.418;11.064;2022-08-04T02:49:05;19.00;1.00
14359;DHT22;7263;49.418;11.064;2022-08-04T02:51:35;19.00;1.00
14359;DHT22;7263;49.418;11.064;2022-08-04T02:54:04;19.00;1.00
14359;DHT22;7263;49.418;11.064;2022-08-04T02:56:32;18.90;1.00
14359;DHT22;7263;49.418;11.064;2022-08-04T02:59:02;18.90;1.00
14359;DHT22;7263;49.418;11.064;2022-08-04T03:01:30;18.90;1.00
14359;DHT22;7263;49.418;11.064;2022-08-04T03:04:18;18.80;1.00
14359;DHT22;7263;49.418;11.064;2022-08-04T03:13:35;18.70;1.00
14359;DHT22;7263;49.418;11.064;2022-08-04T03:16:46;18.70;1.00
14359;DHT22;7263;49.418;11.064;2022-08-04T03:19:43;18.60;1.00
14359;DHT22;7263;49.418;11.064;2022-08-04T03:22:49;18.60;1.00
14359;DHT22;7263;49.418;11.064;2022-08-04T03:29:05;18.60;1.00
14359;DHT22;7263;49.418;11.064;2022-08-04T03:32:16;18.60;1.00
14359;DHT22;7263;49.418;11.064;2022-08-04T03:38:08;18.50;1.00
14359;DHT22;7263;49.418;11.064;2022-08-04T03:41:02;18.50;1.00
14359;DHT22;7263;49.418;11.064;2022-08-04T03:43:52;18.50;6.00
14359;DHT22;7263;49.418;11.064;2022-08-04T03:46:53;18.50;3.90
14359;DHT22;7263;49.418;11.064;2022-08-04T03:53:02;18.50;36.10
14359;DHT22;7263;49.418;11.064;2022-08-04T03:55:44;18.50;47.90
14359;DHT22;7263;49.418;11.064;2022-08-04T03:58:36;18.50;67.90
14359;DHT22;7263;49.418;11.064;2022-08-04T04:01:11;18.50;53.80
14359;DHT22;7263;49.418;11.064;2022-08-04T04:04:08;18.60;30.00
14359;DHT22;7263;49.418;11.064;2022-08-04T04:06:57;18.70;20.30
14359;DHT22;7263;49.418;11.064;2022-08-04T04:10:09;18.70;22.60
14359;DHT22;7263;49.418;11.064;2022-08-04T04:16:11;18.70;30.20
14359;DHT22;7263;49.418;11.064;2022-08-04T04:18:53;18.80;31.50
14359;DHT22;7263;49.418;11.064;2022-08-04T04:21:34;18.80;36.20
14359;DHT22;7263;49.418;11.064;2022-08-04T04:24:28;18.80;62.70
14359;DHT22;7263;49.418;11.064;2022-08-04T04:27:08;18.80;84.60
14359;DHT22;7263;49.418;11.064;2022-08-04T04:30:00;18.90;86.40
14359;DHT22;7263;49.418;11.064;2022-08-04T04:32:42;18.90;95.60
14359;DHT22;7263;49.418;11.064;2022-08-04T04:35:22;19.20;31.70
14359;DHT22;7263;49.418;11.064;2022-08-04T04:38:17;19.50;12.10
14359;DHT22;7263;49.418;11.064;2022-08-04T04:40:55;21.50;1.00
14359;DHT22;7263;49.418;11.064;2022-08-04T04:43:53;20.20;1.00
14359;DHT22;7263;49.418;11.064;2022-08-04T04:46:32;20.70;1.00
14359;DHT22;7263;49.418;11.064;2022-08-04T04:49:07;21.10;1.00
14359;DHT22;7263;49.418;11.064;2022-08-04T04:51:42;21.50;1.00
14359;DHT22;7263;49.418;11.064;2022-08-04T04:54:17;21.80;1.00
14359;DHT22;7263;49.418;11.064;2022-08-04T04:56:59;22.20;1.00
14359;DHT22;7263;49.418;11.064;2022-08-04T04:59:32;22.30;1.00
14359;DHT22;7263;49.418;11.064;2022-08-04T05:02:34;22.50;1.00
14359;DHT22;7263;49.418;11.064;2022-08-04T05:05:16;22.70;1.00
14359;DHT22;7263;49.418;11.064;2022-08-04T05:08:01;23.00;1.00
14359;DHT22;7263;49.418;11.064;2022-08-04T05:10:47;23.10;1.00
14359;DHT22;7263;49.418;11.064;2022-08-04T05:13:31;23.30;1.00
14359;DHT22;7263;49.418;11.064;2022-08-04T05:16:06;23.50;1.00
14359;DHT22;7263;49.418;11.064;2022-08-04T05:18:37;23.60;1.00
14359;DHT22;7263;49.418;11.064;2022-08-04T05:21:18;23.80;1.00
14359;DHT22;7263;49.418;11.064;2022-08-04T05:23:48;24.20;1.00
14359;DHT22;7263;49.418;11.064;2022-08-04T05:26:23;24.40;1.00
14359;DHT22;7263;49.418;11.064;2022-08-04T05:28:55;24.70;1.00
14359;DHT22;7263;49.418;11.064;2022-08-04T05:31:27;25.00;1.00
14359;DHT22;7263;49.418;11.064;2022-08-04T05:33:57;25.20;1.00
14359;DHT22;7263;49.418;11.064;2022-08-04T05:36:32;25.40;1.00
14359;DHT22;7263;49.418;11.064;2022-08-04T05:39:00;25.50;1.00
14359;DHT22;7263;49.418;11.064;2022-08-04T05:41:28;25.80;1.00
14359;DHT22;7263;49.418;11.064;2022-08-04T05:43:56;26.20;1.00
14359;DHT22;7263;49.418;11.064;2022-08-04T05:46:27;26.50;1.00
14359;DHT22;7263;49.418;11.064;2022-08-04T05:48:55;26.70;1.00
14359;DHT22;7263;49.418;11.064;2022-08-04T05:51:22;26.90;1.00
14359;DHT22;7263;49.418;11.064;2022-08-04T05:53:50;27.10;1.00
14359;DHT22;7263;49.418;11.064;2022-08-04T05:56:19;27.30;1.00
14359;DHT22;7263;49.418;11.064;2022-08-04T05:58:47;27.40;1.00
14359;DHT22;7263;49.418;11.064;2022-08-04T06:01:16;27.40;1.00
14359;DHT22;7263;49.418;11.064;2022-08-04T06:03:46;27.30;1.00
14359;DHT22;7263;49.418;11.064;2022-08-04T06:06:16;27.50;1.00
14359;DHT22;7263;49.418;11.064;2022-08-04T06:08:44;27.50;1.00
14359;DHT22;7263;49.418;11.064;2022-08-04T06:11:11;27.90;1.00
14359;DHT22;7263;49.418;11.064;2022-08-04T06:13:42;28.40;1.00
14359;DHT22;7263;49.418;11.064;2022-08-04T06:16:12;28.70;1.00
14359;DHT22;7263;49.418;11.064;2022-08-04T06:18:42;28.80;1.00
14359;DHT22;7263;49.418;11.064;2022-08-04T06:21:12;29.10;1.00
14359;DHT22;7263;49.418;11.064;2022-08-04T06:23:41;29.60;1.00
14359;DHT22;7263;49.418;11.064;2022-08-04T06:26:10;29.50;1.00
14359;DHT22;7263;49.418;11.064;2022-08-04T06:28:44;29.60;1.00
14359;DHT22;7263;49.418;11.064;2022-08-04T06:31:13;29.80;1.00
14359;DHT22;7263;49.418;11.064;2022-08-04T06:33:47;29.90;1.00
14359;DHT22;7263;49.418;11.064;2022-08-04T06:36:18;30.30;1.00
14359;DHT22;7263;49.418;11.064;2022-08-04T06:38:45;33.90;1.00
14359;DHT22;7263;49.418;11.064;2022-08-04T06:41:13;30.40;1.00
14359;DHT22;7263;49.418;11.064;2022-08-04T06:43:40;30.40;1.00
14359;DHT22;7263;49.418;11.064;2022-08-04T06:46:07;30.50;1.00
14359;DHT22;7263;49.418;11.064;2022-08-04T06:48:35;30.90;1.00
14359;DHT22;7263;49.418;11.064;2022-08-04T06:51:02;31.00;1.00
14359;DHT22;7263;49.418;11.064;2022-08-04T06:53:31;31.20;1.00
14359;DHT22;7263;49.418;11.064;2022-08-04T06:55:58;31.50;1.00
14359;DHT22;7263;49.418;11.064;2022-08-04T06:58:27;31.70;1.00
14359;DHT22;7263;49.418;11.064;2022-08-04T07:00:57;32.30;1.00
14359;DHT22;7263;49.418;11.064;2022-08-04T07:03:27;32.40;1.00
14359;DHT22;7263;49.418;11.064;2022-08-04T07:05:55;32.60;1.00
14359;DHT22;7263;49.418;11.064;2022-08-04T07:08:22;32.60;1.00
14359;DHT22;7263;49.418;11.064;2022-08-04T07:10:51;32.80;1.00
14359;DHT22;7263;49.418;11.064;2022-08-04T07:13:20;32.70;1.00
14359;DHT22;7263;49.418;11.064;2022-08-04T07:15:48;32.70;1.00
14359;DHT22;7263;49.418;11.064;2022-08-04T07:18:16;32.70;1.00
14359;DHT22;7263;49.418;11.064;2022-08-04T07:20:44;32.70;1.00
14359;DHT22;7263;49.418;11.064;2022-08-04T07:23:12;31.30;1.00
14359;DHT22;7263;49.418;11.064;2022-08-04T07:25:42;32.90;1.00
14359;DHT22;7263;49.418;11.064;2022-08-04T07:28:12;33.10;1.00
14359;DHT22;7263;49.418;11.064;2022-08-04T07:30:40;33.00;1.00
14359;DHT22;7263;49.418;11.064;2022-08-04T07:33:10;33.10;1.00
14359;DHT22;7263;49.418;11.064;2022-08-04T07:35:37;33.20;1.00
14359;DHT22;7263;49.418;11.064;2022-08-04T07:38:04;33.40;1.00
14359;DHT22;7263;49.418;11.064;2022-08-04T07:40:31;33.60;1.00
14359;DHT22;7263;49.418;11.064;2022-08-04T07:42:59;33.70;1.00
14359;DHT22;7263;49.418;11.064;2022-08-04T07:45:27;33.90;1.00
14359;DHT22;7263;49.418;11.064;2022-08-04T07:47:55;34.10;1.00
14359;DHT22;7263;49.418;11.064;2022-08-04T07:50:22;34.30;1.00
14359;DHT22;7263;49.418;11.064;2022-08-04T07:52:50;34.60;1.00
14359;DHT22;7263;49.418;11.064;2022-08-04T07:55:18;34.70;1.00
14359;DHT22;7263;49.418;11.064;2022-08-04T07:57:46;35.00;1.00
14359;DHT22;7263;49.418;11.064;2022-08-04T08:00:13;34.80;1.00
14359;DHT22;7263;49.418;11.064;2022-08-04T08:02:43;34.70;1.00
14359;DHT22;7263;49.418;11.064;2022-08-04T08:05:13;34.60;1.00
14359;DHT22;7263;49.418;11.064;2022-08-04T08:07:43;34.70;1.00
14359;DHT22;7263;49.418;11.064;2022-08-04T08:10:11;34.70;1.00
14359;DHT22;7263;49.418;11.064;2022-08-04T08:12:39;34.70;1.00
14359;DHT22;7263;49.418;11.064;2022-08-04T08:15:07;34.70;1.00
14359;DHT22;7263;49.418;11.064;2022-08-04T08:17:35;34.70;1.00
14359;DHT22;7263;49.418;11.064;2022-08-04T08:20:05;34.70;1.00
14359;DHT22;7263;49.418;11.064;2022-08-04T08:22:32;34.80;1.00
14359;DHT22;7263;49.418;11.064;2022-08-04T08:24:59;35.10;1.00
14359;DHT22;7263;49.418;11.064;2022-08-04T08:27:26;35.10;1.00
14359;DHT22;7263;49.418;11.064;2022-08-04T08:29:54;35.30;1.00
14359;DHT22;7263;49.418;11.064;2022-08-04T08:32:21;35.30;1.00
14359;DHT22;7263;49.418;11.064;2022-08-04T08:34:48;35.30;1.00
14359;DHT22;7263;49.418;11.064;2022-08-04T08:37:21;35.20;1.00
14359;DHT22;7263;49.418;11.064;2022-08-04T08:39:54;35.50;1.00
14359;DHT22;7263;49.418;11.064;2022-08-04T08:42:52;35.50;1.00
14359;DHT22;7263;49.418;11.064;2022-08-04T08:45:41;35.40;1.00
14359;DHT22;7263;49.418;11.064;2022-08-04T08:48:39;35.50;1.00
14359;DHT22;7263;49.418;11.064;2022-08-04T08:51:28;35.90;1.00
14359;DHT22;7263;49.418;11.064;2022-08-04T08:54:20;36.00;1.00
14359;DHT22;7263;49.418;11.064;2022-08-04T08:56:57;36.10;1.00
14359;DHT22;7263;49.418;11.064;2022-08-04T08:59:43;36.00;1.00
14359;DHT22;7263;49.418;11.064;2022-08-04T09:02:43;36.00;1.00
14359;DHT22;7263;49.418;11.064;2022-08-04T09:08:36;36.20;1.00
14359;DHT22;7263;49.418;11.064;2022-08-04T09:11:13;36.30;1.00
14359;DHT22;7263;49.418;11.064;2022-08-04T09:13:44;36.30;1.00
14359;DHT22;7263;49.418;11.064;2022-08-04T09:16:17;36.30;1.00
14359;DHT22;7263;49.418;11.064;2022-08-04T09:18:49;36.20;1.00
14359;DHT22;7263;49.418;11.064;2022-08-04T09:21:25;36.30;1.00
14359;DHT22;7263;49.418;11.064;2022-08-04T09:24:04;36.30;1.00
14359;DHT22;7263;49.418;11.064;2022-08-04T09:26:39;36.60;1.00
14359;DHT22;7263;49.418;11.064;2022-08-04T09:29:14;37.00;1.00
14359;DHT22;7263;49.418;11.064;2022-08-04T09:31:48;37.30;1.00
14359;DHT22;7263;49.418;11.064;2022-08-04T09:34:25;37.30;1.00
14359;DHT22;7263;49.418;11.064;2022-08-04T09:37:03;37.60;1.00
14359;DHT22;7263;49.418;11.064;2022-08-04T09:39:45;37.40;1.00
14359;DHT22;7263;49.418;11.064;2022-08-04T09:42:21;37.40;1.00
14359;DHT22;7263;49.418;11.064;2022-08-04T09:44:56;36.80;1.00
14359;DHT22;7263;49.418;11.064;2022-08-04T09:47:31;36.80;1.00
14359;DHT22;7263;49.418;11.064;2022-08-04T09:50:06;37.10;1.00
14359;DHT22;7263;49.418;11.064;2022-08-04T09:52:43;37.10;1.00
14359;DHT22;7263;49.418;11.064;2022-08-04T09:55:17;36.80;1.00
14359;DHT22;7263;49.418;11.064;2022-08-04T09:57:56;36.80;1.00
14359;DHT22;7263;49.418;11.064;2022-08-04T10:00:31;36.40;1.00
14359;DHT22;7263;49.418;11.064;2022-08-04T10:03:00;36.30;1.00
14359;DHT22;7263;49.418;11.064;2022-08-04T10:05:41;36.40;1.00
14359;DHT22;7263;49.418;11.064;2022-08-04T10:08:22;36.50;1.00
14359;DHT22;7263;49.418;11.064;2022-08-04T10:11:02;37.10;1.00
14359;DHT22;7263;49.418;11.064;2022-08-04T10:13:41;37.20;1.00
14359;DHT22;7263;49.418;11.064;2022-08-04T10:16:34;37.50;1.00
14359;DHT22;7263;49.418;11.064;2022-08-04T10:19:19;37.70;1.00
14359;DHT22;7263;49.418;11.064;2022-08-04T10:22:02;37.10;1.00
14359;DHT22;7263;49.418;11.064;2022-08-04T10:24:38;36.90;1.00
14359;DHT22;7263;49.418;11.064;2022-08-04T10:27:16;31.90;1.00
14359;DHT22;7263;49.418;11.064;2022-08-04T10:29:48;37.10;1.00
14359;DHT22;7263;49.418;11.064;2022-08-04T10:32:19;37.10;1.00
14359;DHT22;7263;49.418;11.064;2022-08-04T10:34:58;37.10;1.00
14359;DHT22;7263;49.418;11.064;2022-08-04T10:37:28;36.70;1.00
14359;DHT22;7263;49.418;11.064;2022-08-04T10:40:02;36.80;1.00
14359;DHT22;7263;49.418;11.064;2022-08-04T10:42:56;36.90;1.00
14359;DHT22;7263;49.418;11.064;2022-08-04T10:45:38;37.10;1.00
14359;DHT22;7263;49.418;11.064;2022-08-04T10:48:14;36.80;1.00
14359;DHT22;7263;49.418;11.064;2022-08-04T10:50:51;36.80;1.00
14359;DHT22;7263;49.418;11.064;2022-08-04T10:53:24;36.90;1.00
14359;DHT22;7263;49.418;11.064;2022-08-04T10:55:58;37.00;1.00
14359;DHT22;7263;49.418;11.064;2022-08-04T10:58:32;37.20;1.00
14359;DHT22;7263;49.418;11.064;2022-08-04T11:01:04;37.50;1.00
14359;DHT22;7263;49.418;11.064;2022-08-04T11:03:39;37.70;1.00
14359;DHT22;7263;49.418;11.064;2022-08-04T11:06:09;37.60;1.00
14359;DHT22;7263;49.418;11.064;2022-08-04T11:08:43;37.70;1.00
14359;DHT22;7263;49.418;11.064;2022-08-04T11:11:14;37.60;1.00
14359;DHT22;7263;49.418;11.064;2022-08-04T11:13:45;37.50;1.00
14359;DHT22;7263;49.418;11.064;2022-08-04T11:16:18;37.40;1.00
14359;DHT22;7263;49.418;11.064;2022-08-04T11:18:53;37.70;1.00
14359;DHT22;7263;49.418;11.064;2022-08-04T11:21:29;38.20;1.00
14359;DHT22;7263;49.418;11.064;2022-08-04T11:24:01;38.20;1.00
14359;DHT22;7263;49.418;11.064;2022-08-04T11:26:36;38.30;1.00
14359;DHT22;7263;49.418;11.064;2022-08-04T11:29:10;38.40;1.00
14359;DHT22;7263;49.418;11.064;2022-08-04T11:31:43;38.20;1.00
14359;DHT22;7263;49.418;11.064;2022-08-04T11:34:18;38.10;1.00
14359;DHT22;7263;49.418;11.064;2022-08-04T11:36:50;38.10;1.00
14359;DHT22;7263;49.418;11.064;2022-08-04T11:39:23;38.30;1.00
14359;DHT22;7263;49.418;11.064;2022-08-04T11:41:55;38.30;1.00
14359;DHT22;7263;49.418;11.064;2022-08-04T11:44:28;38.60;1.00
14359;DHT22;7263;49.418;11.064;2022-08-04T11:46:59;38.70;1.00
14359;DHT22;7263;49.418;11.064;2022-08-04T11:49:33;38.70;1.00
14359;DHT22;7263;49.418;11.064;2022-08-04T11:52:04;38.80;1.00
14359;DHT22;7263;49.418;11.064;2022-08-04T11:54:33;39.00;1.00
14359;DHT22;7263;49.418;11.064;2022-08-04T11:57:02;39.10;1.00
14359;DHT22;7263;49.418;11.064;2022-08-04T11:59:32;39.00;1.00
14359;DHT22;7263;49.418;11.064;2022-08-04T12:05:19;39.00;1.00
14359;DHT22;7263;49.418;11.064;2022-08-04T12:07:54;39.10;1.00
14359;DHT22;7263;49.418;11.064;2022-08-04T12:10:35;39.20;1.00
14359;DHT22;7263;49.418;11.064;2022-08-04T12:13:12;39.10;1.00
14359;DHT22;7263;49.418;11.064;2022-08-04T12:15:50;39.10;1.00
14359;DHT22;7263;49.418;11.064;2022-08-04T12:18:21;39.00;1.00
14359;DHT22;7263;49.418;11.064;2022-08-04T12:20:56;38.70;1.00
14359;DHT22;7263;49.418;11.064;2022-08-04T12:23:25;38.60;1.00
14359;DHT22;7263;49.418;11.064;2022-08-04T12:25:59;38.20;1.00
14359;DHT22;7263;49.418;11.064;2022-08-04T12:28:33;38.20;1.00
14359;DHT22;7263;49.418;11.064;2022-08-04T12:31:06;38.00;1.00
14359;DHT22;7263;49.418;11.064;2022-08-04T12:33:41;37.90;1.00
14359;DHT22;7263;49.418;11.064;2022-08-04T12:36:18;37.80;1.00
14359;DHT22;7263;49.418;11.064;2022-08-04T12:38:51;37.20;1.00
14359;DHT22;7263;49.418;11.064;2022-08-04T12:41:29;36.80;1.00
14359;DHT22;7263;49.418;11.064;2022-08-04T12:44:03;36.50;1.00
14359;DHT22;7263;49.418;11.064;2022-08-04T12:46:32;36.20;1.00
14359;DHT22;7263;49.418;11.064;2022-08-04T12:49:02;36.20;1.00
14359;DHT22;7263;49.418;11.064;2022-08-04T12:51:36;35.70;1.00
14359;DHT22;7263;49.418;11.064;2022-08-04T12:54:04;35.40;1.00
14359;DHT22;7263;49.418;11.064;2022-08-04T12:56:32;35.20;1.00
14359;DHT22;7263;49.418;11.064;2022-08-04T12:59:02;34.80;1.00
14359;DHT22;7263;49.418;11.064;2022-08-04T13:01:30;34.70;1.00
14359;DHT22;7263;49.418;11.064;2022-08-04T13:03:59;34.40;1.00
14359;DHT22;7263;49.418;11.064;2022-08-04T13:06:31;34.00;1.00
14359;DHT22;7263;49.418;11.064;2022-08-04T13:09:04;33.90;1.00
14359;DHT22;7263;49.418;11.064;2022-08-04T13:11:34;33.80;1.00
14359;DHT22;7263;49.418;11.064;2022-08-04T13:14:03;33.80;1.00
14359;DHT22;7263;49.418;11.064;2022-08-04T13:16:32;33.90;1.00
14359;DHT22;7263;49.418;11.064;2022-08-04T13:19:00;34.00;1.00
14359;DHT22;7263;49.418;11.064;2022-08-04T13:21:30;34.00;1.00
14359;DHT22;7263;49.418;11.064;2022-08-04T13:24:01;34.00;1.00
14359;DHT22;7263;49.418;11.064;2022-08-04T13:26:28;34.10;1.00
14359;DHT22;7263;49.418;11.064;2022-08-04T13:28:59;34.10;1.00
14359;DHT22;7263;49.418;11.064;2022-08-04T13:31:28;34.20;1.00
14359;DHT22;7263;49.418;11.064;2022-08-04T13:34:02;34.20;1.00
14359;DHT22;7263;49.418;11.064;2022-08-04T13:36:34;34.20;1.00
14359;DHT22;7263;49.418;11.064;2022-08-04T13:39:04;34.10;1.00
14359;DHT22;7263;49.418;11.064;2022-08-04T13:41:33;34.30;1.00
14359;DHT22;7263;49.418;11.064;2022-08-04T13:44:04;34.30;1.00
14359;DHT22;7263;49.418;11.064;2022-08-04T13:46:38;34.30;1.00
14359;DHT22;7263;49.418;11.064;2022-08-04T13:49:08;34.20;1.00
14359;DHT22;7263;49.418;11.064;2022-08-04T13:51:38;34.10;1.00
14359;DHT22;7263;49.418;11.064;2022-08-04T13:54:06;34.20;1.00
14359;DHT22;7263;49.418;11.064;2022-08-04T13:56:36;34.30;1.00
14359;DHT22;7263;49.418;11.064;2022-08-04T13:59:07;34.30;1.00
14359;DHT22;7263;49.418;11.064;2022-08-04T14:01:37;34.20;1.00
14359;DHT22;7263;49.418;11.064;2022-08-04T14:04:11;34.10;1.00
14359;DHT22;7263;49.418;11.064;2022-08-04T14:06:49;34.00;1.00
14359;DHT22;7263;49.418;11.064;2022-08-04T14:09:19;33.90;1.00
14359;DHT22;7263;49.418;11.064;2022-08-04T14:11:48;33.90;1.00
14359;DHT22;7263;49.418;11.064;2022-08-04T14:14:17;33.90;1.00
14359;DHT22;7263;49.418;11.064;2022-08-04T14:16:58;33.80;1.00
14359;DHT22;7263;49.418;11.064;2022-08-04T14:19:26;33.90;1.00
14359;DHT22;7263;49.418;11.064;2022-08-04T14:21:55;34.10;1.00
14359;DHT22;7263;49.418;11.064;2022-08-04T14:24:23;34.30;1.00
14359;DHT22;7263;49.418;11.064;2022-08-04T14:26:50;34.40;1.00
14359;DHT22;7263;49.418;11.064;2022-08-04T14:29:18;34.40;1.00
14359;DHT22;7263;49.418;11.064;2022-08-04T14:31:47;34.30;1.00
14359;DHT22;7263;49.418;11.064;2022-08-04T14:34:24;34.20;1.00
14359;DHT22;7263;49.418;11.064;2022-08-04T14:36:52;34.20;1.00
14359;DHT22;7263;49.418;11.064;2022-08-04T14:39:35;34.20;1.00
14359;DHT22;7263;49.418;11.064;2022-08-04T14:42:02;34.20;1.00
14359;DHT22;7263;49.418;11.064;2022-08-04T14:44:29;34.30;1.00
14359;DHT22;7263;49.418;11.064;2022-08-04T14:46:56;34.20;1.00
14359;DHT22;7263;49.418;11.064;2022-08-04T14:49:24;34.30;1.00
14359;DHT22;7263;49.418;11.064;2022-08-04T14:51:53;34.30;1.00
14359;DHT22;7263;49.418;11.064;2022-08-04T14:54:28;34.40;1.00
14359;DHT22;7263;49.418;11.064;2022-08-04T14:56:59;34.60;1.00
14359;DHT22;7263;49.418;11.064;2022-08-04T14:59:26;34.70;1.00
14359;DHT22;7263;49.418;11.064;2022-08-04T15:02:05;34.70;1.00
14359;DHT22;7263;49.418;11.064;2022-08-04T15:04:33;34.80;1.00
14359;DHT22;7263;49.418;11.064;2022-08-04T15:07:01;34.80;1.00
14359;DHT22;7263;49.418;11.064;2022-08-04T15:09:30;34.90;1.00
14359;DHT22;7263;49.418;11.064;2022-08-04T15:11:57;34.80;1.00
14359;DHT22;7263;49.418;11.064;2022-08-04T15:14:25;34.70;1.00
14359;DHT22;7263;49.418;11.064;2022-08-04T15:16:52;34.60;1.00
14359;DHT22;7263;49.418;11.064;2022-08-04T15:19:19;34.60;1.00
14359;DHT22;7263;49.418;11.064;2022-08-04T15:21:46;34.50;1.00
14359;DHT22;7263;49.418;11.064;2022-08-04T15:24:14;34.40;1.00
14359;DHT22;7263;49.418;11.064;2022-08-04T15:26:46;34.30;1.00
14359;DHT22;7263;49.418;11.064;2022-08-04T15:29:18;34.20;1.00
14359;DHT22;7263;49.418;11.064;2022-08-04T15:31:46;34.20;1.00
14359;DHT22;7263;49.418;11.064;2022-08-04T15:34:14;34.10;1.00
14359;DHT22;7263;49.418;11.064;2022-08-04T15:36:50;34.10;1.00
14359;DHT22;7263;49.418;11.064;2022-08-04T15:39:33;34.10;1.00
14359;DHT22;7263;49.418;11.064;2022-08-04T15:42:11;34.10;1.00
14359;DHT22;7263;49.418;11.064;2022-08-04T15:54:21;33.70;1.00
14359;DHT22;7263;49.418;11.064;2022-08-04T15:56:49;33.60;1.00
14359;DHT22;7263;49.418;11.064;2022-08-04T16:00:02;33.50;1.00
14359;DHT22;7263;49.418;11.064;2022-08-04T16:02:48;33.50;1.00
14359;DHT22;7263;49.418;11.064;2022-08-04T16:05:35;33.50;1.00
14359;DHT22;7263;49.418;11.064;2022-08-04T16:08:09;33.40;1.00
14359;DHT22;7263;49.418;11.064;2022-08-04T16:10:41;33.40;1.00
14359;DHT22;7263;49.418;11.064;2022-08-04T16:13:09;33.40;1.00
14359;DHT22;7263;49.418;11.064;2022-08-04T16:15:42;33.40;1.00
14359;DHT22;7263;49.418;11.064;2022-08-04T16:18:11;33.40;1.00
14359;DHT22;7263;49.418;11.064;2022-08-04T16:20:40;33.40;1.00
14359;DHT22;7263;49.418;11.064;2022-08-04T16:23:20;33.40;1.00
14359;DHT22;7263;49.418;11.064;2022-08-04T16:25:53;33.40;1.00
14359;DHT22;7263;49.418;11.064;2022-08-04T16:28:36;33.50;1.00
14359;DHT22;7263;49.418;11.064;2022-08-04T16:31:08;33.60;1.00
14359;DHT22;7263;49.418;11.064;2022-08-04T16:33:35;33.60;1.00
14359;DHT22;7263;49.418;11.064;2022-08-04T16:36:05;33.70;1.00
14359;DHT22;7263;49.418;11.064;2022-08-04T16:39:01;33.60;1.00
14359;DHT22;7263;49.418;11.064;2022-08-04T16:41:38;33.60;1.00
14359;DHT22;7263;49.418;11.064;2022-08-04T16:44:29;33.80;1.00
14359;DHT22;7263;49.418;11.064;2022-08-04T16:46:57;33.80;1.00
14359;DHT22;7263;49.418;11.064;2022-08-04T16:49:25;33.70;1.00
14359;DHT22;7263;49.418;11.064;2022-08-04T16:51:52;33.70;1.00
14359;DHT22;7263;49.418;11.064;2022-08-04T16:54:21;33.70;1.00
14359;DHT22;7263;49.418;11.064;2022-08-04T16:56:48;33.60;1.00
14359;DHT22;7263;49.418;11.064;2022-08-04T16:59:15;33.60;1.00
14359;DHT22;7263;49.418;11.064;2022-08-04T17:01:46;33.60;1.00
14359;DHT22;7263;49.418;11.064;2022-08-04T17:04:13;33.60;1.00
14359;DHT22;7263;49.418;11.064;2022-08-04T17:06:42;33.50;1.00